Lebec, CA (93243)

4:33 AM PDT on April 26, 2015 (GMT -0700)
Lebec Oaks Road | | Change Station
CLOSE
Current Station
Personal Weather Station
Location: LEBEC, CA
Elevation: 3665 ft
Nearby Weather Stations

Elev 3665 ft 34.85 °N, 118.89 °W | Updated 14 seconds ago

Overcast
Overcast
44.2 °F
Feels Like 39 °F
N
10.7
Wind Variable Wind from West
Gusts 18.3 mph

Today
High -- | Low -- °F
--% Chance of Precip.
Yesterday
High -- | Low -- °F
Precip. -- in
6:10 AM 7:36 PM
First Quarter, 55% visible
Pressure 30.00 in
Visibility 0.8 miles
Clouds
Windchill 39 °F
Dew Point 42 °F
Humidity 91%
Rainfall 0.00 in
Snow Depth Not available.
UV 0.0 out of 12
Pollen 7.90 out of 12
Air Quality Not available.
Flu Activity Sporadic
SPECI KSDB 261125Z AUTO 36013G19KT 3/4SM BR VV002 06/04 A3000 RMK AO2 PK WND 35026/1108 T00610044

More Conditions Fewer Conditions

Pressure 30.00 in
Visibility 0.8 miles
Clouds
Windchill 39 °F
Dew Point 42 °F
Humidity 91%
Rainfall 0.00 in
Snow Depth Not available.
UV 0.0 out of 12
Pollen 7.90 out of 12
Air Quality Not available.
Flu Activity Sporadic
SPECI KSDB 261125Z AUTO 36013G19KT 3/4SM BR VV002 06/04 A3000 RMK AO2 PK WND 35026/1108 T00610044

More Conditions Fewer Conditions

The full scope of the disaster following a powerful 7.8-magnitude earthquake in Nepal may not come into view for days, but global charities are already sending emergency aid. Click to see how you can help.

10-Day Weather Forecast

Almanac

Astronomy

Apr. 26, 2015 Rise Set
Actual Time
Civil Twilight
Nautical Twilight
Astronomical Twilight
Moon
Length of Visible Light
Length of Day
Tomorrow will be .
, % of the Moon is Illuminated

Today's Extremes

State Highs State Lows

Community

WunderPhotos

Upload Photos

1,816,964 photos uploaded!

WunderBlogs® & News

Nearby

Air Quality

  Air Quality AQ Index Pollutant
Not available.

Snow Depth

Station Depth Elevation

Earthquake Activity

City Distance Mag. Time & Date
Minimum magnitude displayed is 2.5.

Coastal Water Temperatures

Place Temperature

Stations

Nearby Weather Stations

Station Location Temp. Windchill Dew Point Humidity Wind Precip. Elev Updated Type